createdAt,value
2022-11-12T00:02:29.842Z,103158.28
2022-11-12T00:07:51.378Z,103167.16
2022-11-12T00:13:15.260Z,103166.31
2022-11-12T00:18:37.277Z,103166.22
2022-11-12T00:23:59.239Z,103165.34
2022-11-12T00:29:22.233Z,103170.13
2022-11-12T00:34:44.053Z,103175.59
2022-11-12T00:40:07.009Z,103173.16
2022-11-12T00:45:30.418Z,103179.25
2022-11-12T00:50:52.871Z,103169.91
2022-11-12T00:56:14.776Z,103167.50
2022-11-12T01:01:37.891Z,103174.75
2022-11-12T01:06:59.604Z,103175.22
2022-11-12T01:12:21.138Z,103188.78
2022-11-12T01:17:44.481Z,103174.34
2022-11-12T01:23:05.797Z,103188.50
2022-11-12T01:28:27.567Z,103172.25
2022-11-12T01:33:54.758Z,103179.97
2022-11-12T01:39:16.563Z,103168.16
2022-11-12T01:44:40.739Z,103177.09
2022-11-12T01:50:15.272Z,103181.88
2022-11-12T01:55:38.856Z,103175.47
2022-11-12T02:01:02.164Z,103171.59
2022-11-12T02:06:26.495Z,103163.91
2022-11-12T02:11:47.770Z,103155.19
2022-11-12T02:17:09.986Z,103151.38
2022-11-12T02:22:32.879Z,103150.91
2022-11-12T02:27:56.922Z,103146.34
2022-11-12T02:33:18.760Z,103155.00
2022-11-12T02:38:41.830Z,103149.19
2022-11-12T02:44:03.528Z,103150.16
2022-11-12T02:49:25.395Z,103152.47
2022-11-12T02:54:48.437Z,103152.94
2022-11-12T03:00:12.698Z,103147.16
2022-11-12T03:05:35.852Z,103143.47
2022-11-12T03:10:58.708Z,103146.84
2022-11-12T03:16:20.399Z,103146.22
2022-11-12T03:21:42.161Z,103132.28
2022-11-12T03:27:05.251Z,103134.25
2022-11-12T03:32:27.337Z,103138.84
2022-11-12T03:37:49.659Z,103144.63
2022-11-12T03:43:12.611Z,103145.88
2022-11-12T03:48:34.217Z,103148.91
2022-11-12T03:53:55.931Z,103150.75
2022-11-12T03:59:18.956Z,103147.50
2022-11-12T04:04:58.076Z,103147.63
2022-11-12T04:10:19.926Z,103145.19
2022-11-12T04:15:42.959Z,103151.28
2022-11-12T04:21:36.898Z,103145.50
2022-11-12T04:26:58.373Z,103139.34
2022-11-12T04:32:21.985Z,103149.78
2022-11-12T04:37:47.058Z,103137.50
2022-11-12T04:43:29.309Z,103120.94
2022-11-12T04:48:52.045Z,103120.19
2022-11-12T04:54:13.641Z,103112.34
2022-11-12T04:59:35.785Z,103103.78
2022-11-12T05:04:58.600Z,103103.78
2022-11-12T05:10:20.023Z,103101.94
2022-11-12T05:15:41.807Z,103108.19
2022-11-12T05:21:25.245Z,103103.59
2022-11-12T05:26:47.085Z,103095.03
2022-11-12T05:32:10.702Z,103098.41
2022-11-12T05:37:33.932Z,103101.94
2022-11-12T05:42:55.989Z,103098.69
2022-11-12T05:48:23.961Z,103093.34
2022-11-12T05:53:48.044Z,103092.41
2022-11-12T05:59:12.277Z,103093.19
2022-11-12T06:04:33.939Z,103092.13
2022-11-12T06:09:56.985Z,103094.56
2022-11-12T06:15:18.584Z,103092.13
2022-11-12T06:20:41.338Z,103095.50
2022-11-12T06:26:05.019Z,103110.22
2022-11-12T06:31:26.468Z,103116.06
2022-11-12T06:36:48.816Z,103119.47
2022-11-12T06:42:12.129Z,103120.97
2022-11-12T06:47:34.231Z,103129.59
2022-11-12T06:53:01.292Z,103121.78
2022-11-12T06:58:25.286Z,103124.69
2022-11-12T07:03:48.057Z,103126.34
2022-11-12T07:09:11.980Z,103139.53
2022-11-12T07:14:35.081Z,103133.53
2022-11-12T07:20:02.279Z,103138.75
2022-11-12T07:25:25.594Z,103150.69
2022-11-12T07:30:51.765Z,103136.75
2022-11-12T07:36:19.714Z,103139.66
2022-11-12T07:41:47.695Z,103144.53
2022-11-12T07:47:15.462Z,103139.00
2022-11-12T07:52:44.906Z,103148.31
2022-11-12T07:58:11.726Z,103163.91
2022-11-12T08:03:37.503Z,103162.50
2022-11-12T08:09:05.025Z,103163.84
2022-11-12T08:14:31.984Z,103165.84
2022-11-12T08:19:57.934Z,103167.22
2022-11-12T08:25:22.297Z,103164.16
2022-11-12T08:30:46.339Z,103169.31
2022-11-12T08:36:11.878Z,103157.09
2022-11-12T08:41:34.764Z,103155.69
2022-11-12T08:46:56.812Z,103161.84
2022-11-12T08:52:21.312Z,103164.03
2022-11-12T08:57:54.523Z,103161.63
2022-11-12T09:03:18.033Z,103167.53
2022-11-12T09:08:41.096Z,103183.75
2022-11-12T09:14:03.167Z,103174.75
2022-11-12T09:19:24.758Z,103162.41
2022-11-12T09:24:47.782Z,103164.97
2022-11-12T09:30:10.150Z,103163.41
2022-11-12T09:35:31.868Z,103164.31
2022-11-12T09:41:09.365Z,103170.56
2022-11-12T09:46:41.080Z,103163.44
2022-11-12T09:52:07.828Z,103168.59
2022-11-12T09:57:31.669Z,103164.22
2022-11-12T10:03:02.445Z,103175.34
2022-11-12T10:08:34.312Z,103166.53
2022-11-12T10:14:07.373Z,103169.63
2022-11-12T10:19:44.925Z,103165.78
2022-11-12T10:25:15.749Z,103163.78
2022-11-12T10:30:51.061Z,103165.34
2022-11-12T10:36:31.339Z,103156.16
2022-11-12T10:42:04.442Z,103158.69
2022-11-12T10:47:34.184Z,103157.25
2022-11-12T10:52:58.806Z,103157.94
2022-11-12T10:58:23.504Z,103149.25
2022-11-12T11:03:53.734Z,103137.13
2022-11-12T11:09:20.741Z,103141.44
2022-11-12T11:14:44.714Z,103129.16
2022-11-12T11:20:20.030Z,103121.91
2022-11-12T11:25:44.200Z,103120.66
2022-11-12T11:31:17.184Z,103117.38
2022-11-12T11:36:51.513Z,103110.44
2022-11-12T11:42:26.650Z,103103.34
2022-11-12T11:48:01.792Z,103087.88
2022-11-12T11:53:31.893Z,103077.56
2022-11-12T11:59:14.523Z,103074.94
2022-11-12T12:04:47.014Z,103072.44
2022-11-12T12:10:34.716Z,103075.38
2022-11-12T12:16:19.802Z,103063.78
2022-11-12T12:21:43.122Z,103041.84
2022-11-12T12:27:13.362Z,103035.91
2022-11-12T12:32:40.205Z,103024.03
2022-11-12T12:38:12.612Z,103015.09
2022-11-12T12:43:41.632Z,103003.59
2022-11-12T12:49:07.785Z,102997.78
2022-11-12T12:54:58.871Z,102991.59
2022-11-12T13:00:33.216Z,102990.72
2022-11-12T13:06:08.272Z,102994.91
2022-11-12T13:12:11.982Z,102988.19
2022-11-12T13:17:53.260Z,102969.31
2022-11-12T13:24:04.428Z,102966.00
2022-11-12T13:29:41.824Z,102976.88
2022-11-12T13:35:27.725Z,102984.41
2022-11-12T13:40:54.126Z,102979.34
2022-11-12T13:46:27.621Z,102970.53
2022-11-12T13:51:53.248Z,102975.84
2022-11-12T13:57:28.925Z,102971.63
2022-11-12T14:02:54.401Z,102958.28
2022-11-12T14:08:41.727Z,102948.41
2022-11-12T14:14:13.427Z,102947.19
2022-11-12T14:20:01.913Z,102945.16
2022-11-12T14:25:26.900Z,102946.84
2022-11-12T14:30:48.522Z,102948.28
2022-11-12T14:36:15.604Z,102957.91
2022-11-12T14:41:42.806Z,102956.34
2022-11-12T14:47:05.311Z,102950.94
2022-11-12T14:52:32.276Z,102952.47
2022-11-12T14:57:58.867Z,102951.38
2022-11-12T15:03:22.265Z,102931.88
2022-11-12T15:08:44.122Z,102937.00
2022-11-12T15:14:07.251Z,102933.06
2022-11-12T15:19:30.476Z,102937.81
2022-11-12T15:24:52.562Z,102936.91
2022-11-12T15:30:23.672Z,102931.84
2022-11-12T15:35:46.336Z,102937.81
2022-11-12T15:41:08.141Z,102933.09
2022-11-12T15:46:31.336Z,102924.56
2022-11-12T15:51:54.496Z,102921.75
2022-11-12T15:57:19.443Z,102927.88
2022-11-12T16:02:43.441Z,102926.19
2022-11-12T16:08:05.845Z,102923.06
2022-11-12T16:13:30.451Z,102922.22
2022-11-12T16:18:53.506Z,102924.34
2022-11-12T16:24:15.245Z,102926.91
2022-11-12T16:29:37.373Z,102916.19
2022-11-12T16:35:01.422Z,102915.59
2022-11-12T16:40:26.028Z,102916.06
2022-11-12T16:45:48.002Z,102919.41
2022-11-12T16:51:17.322Z,102913.94
2022-11-12T16:56:39.589Z,102921.53
2022-11-12T17:02:01.378Z,102927.78
2022-11-12T17:07:24.373Z,102923.31
2022-11-12T17:12:49.410Z,102921.53
2022-11-12T17:18:10.880Z,102920.78
2022-11-12T17:23:33.831Z,102919.78
2022-11-12T17:29:01.102Z,102919.78
2022-11-12T17:34:25.552Z,102915.34
2022-11-12T17:39:49.069Z,102916.16
2022-11-12T17:45:11.441Z,102924.25
2022-11-12T17:50:32.859Z,102918.03
2022-11-12T17:55:59.355Z,102923.19
2022-11-12T18:01:24.151Z,102924.16
2022-11-12T18:06:46.477Z,102918.84
2022-11-12T18:12:10.882Z,102922.41
2022-11-12T18:17:34.273Z,102915.09
2022-11-12T18:22:55.875Z,102919.69
2022-11-12T18:28:19.004Z,102915.25
2022-11-12T18:33:40.969Z,102920.44
2022-11-12T18:39:05.606Z,102921.38
2022-11-12T18:44:28.780Z,102913.72
2022-11-12T18:49:50.603Z,102908.84
2022-11-12T18:55:12.580Z,102899.50
2022-11-12T19:00:35.593Z,102895.19
2022-11-12T19:05:59.376Z,102893.13
2022-11-12T19:11:21.994Z,102895.97
2022-11-12T19:16:45.133Z,102901.22
2022-11-12T19:22:07.456Z,102897.81
2022-11-12T19:27:29.047Z,102897.09
2022-11-12T19:32:52.534Z,102892.91
2022-11-12T19:38:15.337Z,102893.34
2022-11-12T19:43:37.684Z,102894.47
2022-11-12T19:49:01.287Z,102898.44
2022-11-12T19:54:23.953Z,102893.19
2022-11-12T19:59:49.629Z,102894.94
2022-11-12T20:05:14.243Z,102892.97
2022-11-12T20:10:38.265Z,102891.81
2022-11-12T20:16:01.017Z,102887.03
2022-11-12T20:21:23.917Z,102870.72
2022-11-12T20:26:45.831Z,102875.56
2022-11-12T20:32:07.663Z,102868.03
2022-11-12T20:37:32.177Z,102856.84
2022-11-12T20:42:54.265Z,102849.53
2022-11-12T20:48:16.444Z,102851.69
2022-11-12T20:53:42.434Z,102846.88
2022-11-12T20:59:05.293Z,102846.94
2022-11-12T21:04:27.555Z,102847.28
2022-11-12T21:09:58.360Z,102848.72
2022-11-12T21:15:27.600Z,102850.81
2022-11-12T21:20:49.604Z,102848.06
2022-11-12T21:26:19.856Z,102835.97
2022-11-12T21:31:41.865Z,102836.00
2022-11-12T21:37:04.509Z,102834.13
2022-11-12T21:42:28.401Z,102846.03
2022-11-12T21:47:50.403Z,102841.97
2022-11-12T21:53:14.624Z,102841.16
2022-11-12T21:58:41.706Z,102841.06
2022-11-12T22:04:10.111Z,102832.19
2022-11-12T22:09:34.906Z,102822.25
2022-11-12T22:14:58.332Z,102818.84
2022-11-12T22:20:20.159Z,102825.13
2022-11-12T22:25:42.207Z,102830.09
2022-11-12T22:31:06.520Z,102828.03
2022-11-12T22:36:29.600Z,102836.16
2022-11-12T22:41:51.396Z,102831.63
2022-11-12T22:47:14.570Z,102824.53
2022-11-12T22:52:36.732Z,102811.34
2022-11-12T22:58:00.885Z,102814.91
2022-11-12T23:03:24.018Z,102817.41
2022-11-12T23:08:46.149Z,102822.94
2022-11-12T23:14:08.091Z,102811.94
2022-11-12T23:19:31.177Z,102798.97
2022-11-12T23:24:52.831Z,102793.03
2022-11-12T23:30:15.420Z,102802.41
2022-11-12T23:35:38.522Z,102797.44
2022-11-12T23:41:00.985Z,102797.59
2022-11-12T23:46:23.436Z,102783.69
2022-11-12T23:51:46.469Z,102771.19
2022-11-12T23:57:08.325Z,102765.69
